createdAt,value
2018-12-22T00:14:52.704Z,20.63
2018-12-22T00:24:53.969Z,17.00
2018-12-22T00:34:55.236Z,23.63
2018-12-22T00:44:56.497Z,15.57
2018-12-22T00:54:57.768Z,14.20
2018-12-22T01:04:59.050Z,15.70
2018-12-22T01:15:00.315Z,16.53
2018-12-22T01:25:01.582Z,14.67
2018-12-22T01:35:03.080Z,12.80
2018-12-22T02:25:45.022Z,16.57
2018-12-22T02:35:46.330Z,17.27
2018-12-22T02:45:47.677Z,13.83
2018-12-22T02:55:49.796Z,11.07
2018-12-22T03:05:51.083Z,12.97
2018-12-22T03:15:52.396Z,13.97
2018-12-22T03:25:54.476Z,13.80
2018-12-22T03:35:55.766Z,11.80
2018-12-22T10:36:45.312Z,7.50
2018-12-22T10:47:20.671Z,7.77
2018-12-22T10:57:22.002Z,9.00
2018-12-22T11:07:23.441Z,9.03
2018-12-22T11:17:24.771Z,6.20
2018-12-22T11:27:26.076Z,6.73
2018-12-22T11:37:27.453Z,6.60
2018-12-22T11:47:28.721Z,9.83
2018-12-22T11:57:30.035Z,6.50
2018-12-22T12:07:31.402Z,17.50
2018-12-22T12:17:32.788Z,19.63
2018-12-22T12:27:34.155Z,23.47
2018-12-22T14:40:52.629Z,23.17
2018-12-22T17:45:50.062Z,26.73
2018-12-22T17:55:52.280Z,30.83
2018-12-22T18:05:53.625Z,10.33
2018-12-22T18:15:54.889Z,7.57
2018-12-22T18:25:56.280Z,15.07
2018-12-22T18:35:58.285Z,18.23
2018-12-22T18:46:00.311Z,16.43
2018-12-22T18:56:02.185Z,4.77
2018-12-22T20:06:55.816Z,2.40
2018-12-22T20:47:37.337Z,1.60
2018-12-22T20:57:39.397Z,1.60
2018-12-22T21:07:43.893Z,1.00
2018-12-22T23:20:28.073Z,5.80
2018-12-22T23:30:29.325Z,5.07
2018-12-22T23:40:30.694Z,13.77
2018-12-22T23:50:31.946Z,2.27
